Flight Track Log - Related Links

Times and Time Zones

All times are in EDT time to prevent confusion due to time zone crossing. See the CTL14 flight status page for this flight to view local times or setup timezone preferences in your user account.

Time Position Orientation Groundspeed Altitude Reporting Facility
EDT Latitude Longitude Course Direction KTS MPH feet Rate Location/Type
Wed 03:08:00 AM 39.9281 -83.1945 250° West  Level Estimated
Wed 03:09:00 AM 39.9353 -83.2386 282° West  Level FlightAware Approximate
Wed 03:10:00 AM 39.9249 -83.2816 250° West  Level Estimated
Wed 03:11:00 AM 39.9152 -83.3249 254° West  Level FlightAware Approximate
Wed 03:12:00 AM 39.9054 -83.3681 254° West  Level FlightAware Approximate
Wed 03:13:00 AM 39.8956 -83.4114 254° West  Level FlightAware Approximate
Wed 03:14:00 AM 39.8858 -83.4546 254° West  Level FlightAware Approximate
Wed 03:15:00 AM 39.8759 -83.4978 253° West  Level FlightAware Approximate
Wed 03:16:00 AM 39.8661 -83.5410 253° West  Level FlightAware Approximate
Wed 03:17:00 AM 39.8562 -83.5842 253° West  Level FlightAware Approximate
Wed 03:18:00 AM 39.8463 -83.6274 253° West  Level FlightAware Approximate
Wed 03:19:00 AM 39.8364 -83.6705 253° West  Level FlightAware Approximate
Wed 03:20:00 AM 39.8265 -83.7137 253° West  Level FlightAware Approximate
Wed 03:21:00 AM 39.8166 -83.7568 253° West  Level FlightAware Approximate
Wed 03:22:00 AM 39.8066 -83.7999 253° West  Level FlightAware Approximate
Wed 03:23:00 AM 39.7967 -83.8430 253° West  Level FlightAware Approximate
Wed 03:24:00 AM 39.7867 -83.8861 253° West  Level FlightAware Approximate
Wed 03:25:00 AM 39.7767 -83.9292 253° West  Level FlightAware Approximate
Wed 03:26:00 AM 39.7667 -83.9723 253° West  Level FlightAware Approximate
Wed 03:27:00 AM 39.7567 -84.0154 253° West  Level FlightAware Approximate
Wed 03:28:00 AM 39.7466 -84.0584 253° West  Level FlightAware Approximate
Wed 03:29:00 AM 39.7366 -84.1014 253° West  Level FlightAware Approximate
Wed 03:30:00 AM 39.7265 -84.1445 253° West  Level FlightAware Approximate
Wed 03:31:00 AM 39.7164 -84.1875 253° West  Level FlightAware Approximate
Wed 03:32:00 AM 39.7063 -84.2305 253° West  Level FlightAware Approximate
Wed 03:33:00 AM 39.6962 -84.2735 253° West  Level FlightAware Approximate
Wed 03:34:00 AM 39.6861 -84.3164 253° West  Level FlightAware Approximate
Wed 03:35:00 AM 39.6759 -84.3594 253° West  Level FlightAware Approximate
Wed 03:36:00 AM 39.6657 -84.4024 253° West  Level FlightAware Approximate
Wed 03:37:00 AM 39.6555 -84.4453 253° West  Level FlightAware Approximate
Wed 03:38:00 AM 39.6454 -84.4882 253° West  Level FlightAware Approximate
Wed 03:39:00 AM 39.6351 -84.5311 253° West  Level FlightAware Approximate
Wed 03:40:00 AM 39.6249 -84.5740 253° West  Level FlightAware Approximate
Wed 03:41:00 AM 39.6147 -84.6169 253° West  Level FlightAware Approximate
Wed 03:42:00 AM 39.6044 -84.6598 253° West  Level FlightAware Approximate
Wed 03:43:00 AM 39.5929 -84.7021 249° West  Level Estimated
Wed 03:44:00 AM 39.5809 -84.7442 250° West  Level FlightAware Approximate
Wed 03:45:00 AM 39.5689 -84.7863 250° West  Level FlightAware Approximate
Wed 03:46:00 AM 39.5568 -84.8283 250° West  Level FlightAware Approximate
Wed 03:47:00 AM 39.5448 -84.8704 250° West  Level FlightAware Approximate
Wed 03:48:00 AM 39.5327 -84.9124 250° West  Level FlightAware Approximate
Wed 03:49:00 AM 39.5206 -84.9544 250° West  Level FlightAware Approximate
Wed 03:50:00 AM 39.5085 -84.9964 250° West  Level FlightAware Approximate
Wed 03:51:00 AM 39.4964 -85.0384 249° West  Level FlightAware Approximate
Wed 03:52:00 AM 39.4842 -85.0803 249° West  Level FlightAware Approximate
Wed 03:53:00 AM 39.4721 -85.1223 249° West  Level FlightAware Approximate
Wed 03:54:00 AM 39.4599 -85.1642 249° West  Level FlightAware Approximate
Wed 03:55:00 AM 39.4477 -85.2061 249° West  Level FlightAware Approximate
Wed 03:56:00 AM 39.4355 -85.2480 249° West  Level FlightAware Approximate
Wed 03:57:00 AM 39.4233 -85.2899 249° West  Level FlightAware Approximate
Wed 03:58:00 AM 39.4111 -85.3318 249° West  Level FlightAware Approximate
Wed 03:59:00 AM 39.4000 -85.3742 256° West  Level Estimated
Wed 04:00:00 AM 39.3890 -85.4166 251° West  Level FlightAware Approximate
Wed 04:01:00 AM 39.3779 -85.4590 248° West  Level Estimated
Wed 04:02:00 AM 39.3655 -85.5008 249° West  Level FlightAware Approximate
Wed 04:03:00 AM 39.3532 -85.5426 249° West  Level FlightAware Approximate
Wed 04:04:00 AM 39.3408 -85.5844 249° West  Level FlightAware Approximate
Wed 04:05:00 AM 39.3284 -85.6261 249° West  Level FlightAware Approximate
Wed 04:06:00 AM 39.3160 -85.6679 249° West  Level FlightAware Approximate
Wed 04:07:00 AM 39.3059 -85.7106 247° West  Level Estimated
Wed 04:08:00 AM 39.2926 -85.7519 247° West  Level FlightAware Approximate
Wed 04:09:00 AM 39.2835 -85.7950 247° West  Level Estimated
Wed 04:10:00 AM 39.2743 -85.8381 247° West  Level Estimated
Wed 04:11:00 AM 39.2652 -85.8811 247° West  Level Estimated
Wed 04:12:00 AM 39.2500 -85.8833 247° West  Level FlightAware Approximate
Wed 04:13:00 AM 39.2619 -85.8963 247° West  Level Estimated
Wed 04:14:00 AM 39.2619 -85.8963 247° West  Level Estimated
Wed 04:15:00 AM 39.2619 -85.8963 247° West  Level Estimated
Wed 04:16:00 AM 39.2619 -85.8963 247° West  Level Estimated
Wed 04:17:00 AM 39.2619 -85.8963 247° West  Level Estimated
Wed 04:18:00 AM 39.2619 -85.8963 247° West  Level Estimated
Wed 04:19:00 AM 39.2619 -85.8963 247° West  Level Estimated
Wed 04:20:00 AM 39.2619 -85.8963 247° West  Level Estimated
Wed 04:21:00 AM 39.2619 -85.8963 247° West  Level Estimated
Wed 04:22:00 AM 39.2619 -85.8963 247° West  Level Estimated
Wed 04:23:00 AM 39.2619 -85.8963 247° West  Level Estimated

Login

Don't have an account? Register now (free) for customized features, flight alerts, and more!